sensor_id;sensor_type;location;lat;lon;timestamp;P1;durP1;ratioP1;P2;durP2;ratioP2
28766;SDS011;15921;52.034;20.650;2023-08-24T00:02:01;7.40;;;3.65;;
28766;SDS011;15921;52.034;20.650;2023-08-24T00:04:27;12.68;;;4.05;;
28766;SDS011;15921;52.034;20.650;2023-08-24T00:06:53;10.23;;;3.53;;
28766;SDS011;15921;52.034;20.650;2023-08-24T00:09:19;5.43;;;3.92;;
28766;SDS011;15921;52.034;20.650;2023-08-24T00:11:45;9.18;;;4.03;;
28766;SDS011;15921;52.034;20.650;2023-08-24T00:14:11;7.00;;;3.67;;
28766;SDS011;15921;52.034;20.650;2023-08-24T00:16:37;5.70;;;4.00;;
28766;SDS011;15921;52.034;20.650;2023-08-24T00:19:03;6.65;;;4.03;;
28766;SDS011;15921;52.034;20.650;2023-08-24T00:21:29;9.02;;;4.45;;
28766;SDS011;15921;52.034;20.650;2023-08-24T00:23:55;5.30;;;3.92;;
28766;SDS011;15921;52.034;20.650;2023-08-24T00:26:20;6.28;;;3.47;;
28766;SDS011;15921;52.034;20.650;2023-08-24T00:28:46;5.57;;;3.90;;
28766;SDS011;15921;52.034;20.650;2023-08-24T00:31:12;8.18;;;3.75;;
28766;SDS011;15921;52.034;20.650;2023-08-24T00:33:40;8.25;;;3.58;;
28766;SDS011;15921;52.034;20.650;2023-08-24T00:36:05;6.07;;;3.80;;
28766;SDS011;15921;52.034;20.650;2023-08-24T00:38:31;7.25;;;3.88;;
28766;SDS011;15921;52.034;20.650;2023-08-24T00:40:58;6.97;;;3.53;;
28766;SDS011;15921;52.034;20.650;2023-08-24T00:43:27;6.80;;;4.15;;
28766;SDS011;15921;52.034;20.650;2023-08-24T00:45:56;5.10;;;4.03;;
28766;SDS011;15921;52.034;20.650;2023-08-24T00:48:25;5.50;;;3.38;;
28766;SDS011;15921;52.034;20.650;2023-08-24T00:50:54;7.25;;;3.45;;
28766;SDS011;15921;52.034;20.650;2023-08-24T00:53:21;8.77;;;3.72;;
28766;SDS011;15921;52.034;20.650;2023-08-24T00:55:50;5.05;;;3.38;;
28766;SDS011;15921;52.034;20.650;2023-08-24T00:58:16;7.05;;;3.55;;
28766;SDS011;15921;52.034;20.650;2023-08-24T01:00:44;7.13;;;3.85;;
28766;SDS011;15921;52.034;20.650;2023-08-24T01:03:09;9.70;;;3.95;;
28766;SDS011;15921;52.034;20.650;2023-08-24T01:05:35;6.95;;;3.80;;
28766;SDS011;15921;52.034;20.650;2023-08-24T01:08:01;9.75;;;3.72;;
28766;SDS011;15921;52.034;20.650;2023-08-24T01:10:28;9.15;;;3.53;;
28766;SDS011;15921;52.034;20.650;2023-08-24T01:15:38;5.53;;;3.72;;
28766;SDS011;15921;52.034;20.650;2023-08-24T01:18:11;5.03;;;3.35;;
28766;SDS011;15921;52.034;20.650;2023-08-24T01:20:42;6.53;;;3.42;;
28766;SDS011;15921;52.034;20.650;2023-08-24T01:23:26;5.82;;;3.83;;
28766;SDS011;15921;52.034;20.650;2023-08-24T01:28:36;5.32;;;3.30;;
28766;SDS011;15921;52.034;20.650;2023-08-24T01:31:03;5.68;;;3.97;;
28766;SDS011;15921;52.034;20.650;2023-08-24T01:33:30;9.82;;;3.72;;
28766;SDS011;15921;52.034;20.650;2023-08-24T01:35:56;7.88;;;3.75;;
28766;SDS011;15921;52.034;20.650;2023-08-24T01:38:22;6.15;;;4.10;;
28766;SDS011;15921;52.034;20.650;2023-08-24T01:43:34;6.30;;;3.58;;
28766;SDS011;15921;52.034;20.650;2023-08-24T01:46:05;7.32;;;3.97;;
28766;SDS011;15921;52.034;20.650;2023-08-24T01:48:32;8.20;;;3.63;;
28766;SDS011;15921;52.034;20.650;2023-08-24T01:50:58;7.75;;;3.80;;
28766;SDS011;15921;52.034;20.650;2023-08-24T01:53:26;7.40;;;4.15;;
28766;SDS011;15921;52.034;20.650;2023-08-24T01:55:56;4.85;;;3.60;;
28766;SDS011;15921;52.034;20.650;2023-08-24T01:58:21;5.88;;;4.07;;
28766;SDS011;15921;52.034;20.650;2023-08-24T02:00:47;5.22;;;3.35;;
28766;SDS011;15921;52.034;20.650;2023-08-24T02:03:13;6.68;;;4.40;;
28766;SDS011;15921;52.034;20.650;2023-08-24T02:05:39;9.85;;;4.47;;
28766;SDS011;15921;52.034;20.650;2023-08-24T02:08:04;5.80;;;3.90;;
28766;SDS011;15921;52.034;20.650;2023-08-24T02:10:30;8.05;;;4.15;;
28766;SDS011;15921;52.034;20.650;2023-08-24T02:12:56;5.95;;;4.35;;
28766;SDS011;15921;52.034;20.650;2023-08-24T02:15:22;7.38;;;3.90;;
28766;SDS011;15921;52.034;20.650;2023-08-24T02:17:47;9.90;;;3.63;;
28766;SDS011;15921;52.034;20.650;2023-08-24T02:20:14;8.63;;;3.80;;
28766;SDS011;15921;52.034;20.650;2023-08-24T02:22:39;7.15;;;4.10;;
28766;SDS011;15921;52.034;20.650;2023-08-24T02:25:05;12.93;;;4.20;;
28766;SDS011;15921;52.034;20.650;2023-08-24T02:27:32;6.45;;;4.00;;
28766;SDS011;15921;52.034;20.650;2023-08-24T02:29:58;5.05;;;3.60;;
28766;SDS011;15921;52.034;20.650;2023-08-24T02:32:24;6.45;;;3.83;;
28766;SDS011;15921;52.034;20.650;2023-08-24T02:34:49;8.75;;;3.63;;
28766;SDS011;15921;52.034;20.650;2023-08-24T02:37:15;5.60;;;4.07;;
28766;SDS011;15921;52.034;20.650;2023-08-24T02:39:41;6.13;;;4.28;;
28766;SDS011;15921;52.034;20.650;2023-08-24T02:42:06;5.45;;;4.00;;
28766;SDS011;15921;52.034;20.650;2023-08-24T02:44:32;6.80;;;4.28;;
28766;SDS011;15921;52.034;20.650;2023-08-24T02:46:58;10.73;;;4.50;;
28766;SDS011;15921;52.034;20.650;2023-08-24T02:49:23;7.63;;;4.47;;
28766;SDS011;15921;52.034;20.650;2023-08-24T02:51:49;8.07;;;4.32;;
28766;SDS011;15921;52.034;20.650;2023-08-24T02:54:15;9.57;;;3.92;;
28766;SDS011;15921;52.034;20.650;2023-08-24T02:56:40;6.13;;;4.28;;
28766;SDS011;15921;52.034;20.650;2023-08-24T02:59:06;10.23;;;4.20;;
28766;SDS011;15921;52.034;20.650;2023-08-24T03:01:32;8.77;;;4.20;;
28766;SDS011;15921;52.034;20.650;2023-08-24T03:03:57;13.13;;;4.03;;
28766;SDS011;15921;52.034;20.650;2023-08-24T03:06:23;12.60;;;4.45;;
28766;SDS011;15921;52.034;20.650;2023-08-24T03:08:49;9.55;;;4.25;;
28766;SDS011;15921;52.034;20.650;2023-08-24T03:11:15;9.40;;;3.97;;
28766;SDS011;15921;52.034;20.650;2023-08-24T03:13:40;8.32;;;4.65;;
28766;SDS011;15921;52.034;20.650;2023-08-24T03:16:06;7.70;;;4.70;;
28766;SDS011;15921;52.034;20.650;2023-08-24T03:18:33;9.98;;;4.22;;
28766;SDS011;15921;52.034;20.650;2023-08-24T03:20:59;11.70;;;3.67;;
28766;SDS011;15921;52.034;20.650;2023-08-24T03:23:26;6.13;;;3.75;;
28766;SDS011;15921;52.034;20.650;2023-08-24T03:25:52;10.48;;;5.00;;
28766;SDS011;15921;52.034;20.650;2023-08-24T03:28:18;10.57;;;4.75;;
28766;SDS011;15921;52.034;20.650;2023-08-24T03:30:47;6.43;;;4.07;;
28766;SDS011;15921;52.034;20.650;2023-08-24T03:33:14;6.30;;;3.80;;
28766;SDS011;15921;52.034;20.650;2023-08-24T03:35:39;10.20;;;3.92;;
28766;SDS011;15921;52.034;20.650;2023-08-24T03:38:05;6.20;;;4.07;;
28766;SDS011;15921;52.034;20.650;2023-08-24T03:40:31;5.50;;;3.72;;
28766;SDS011;15921;52.034;20.650;2023-08-24T03:42:57;9.85;;;4.32;;
28766;SDS011;15921;52.034;20.650;2023-08-24T03:45:23;6.43;;;3.97;;
28766;SDS011;15921;52.034;20.650;2023-08-24T03:47:48;8.90;;;4.10;;
28766;SDS011;15921;52.034;20.650;2023-08-24T03:50:15;10.68;;;4.60;;
28766;SDS011;15921;52.034;20.650;2023-08-24T03:52:41;7.97;;;3.65;;
28766;SDS011;15921;52.034;20.650;2023-08-24T03:55:07;9.00;;;4.25;;
28766;SDS011;15921;52.034;20.650;2023-08-24T03:57:33;8.82;;;3.85;;
28766;SDS011;15921;52.034;20.650;2023-08-24T03:59:58;7.38;;;4.00;;
28766;SDS011;15921;52.034;20.650;2023-08-24T04:02:24;9.38;;;4.30;;
28766;SDS011;15921;52.034;20.650;2023-08-24T04:04:50;7.55;;;4.07;;
28766;SDS011;15921;52.034;20.650;2023-08-24T04:07:16;8.63;;;4.05;;
28766;SDS011;15921;52.034;20.650;2023-08-24T04:09:41;5.78;;;3.72;;
28766;SDS011;15921;52.034;20.650;2023-08-24T04:12:07;9.00;;;4.03;;
28766;SDS011;15921;52.034;20.650;2023-08-24T04:14:33;18.20;;;3.85;;
28766;SDS011;15921;52.034;20.650;2023-08-24T04:16:59;6.43;;;3.97;;
28766;SDS011;15921;52.034;20.650;2023-08-24T04:19:25;7.07;;;3.83;;
28766;SDS011;15921;52.034;20.650;2023-08-24T04:21:50;5.68;;;3.83;;
28766;SDS011;15921;52.034;20.650;2023-08-24T04:24:16;7.65;;;4.55;;
28766;SDS011;15921;52.034;20.650;2023-08-24T04:26:41;7.85;;;4.30;;
28766;SDS011;15921;52.034;20.650;2023-08-24T04:29:07;5.15;;;3.42;;
28766;SDS011;15921;52.034;20.650;2023-08-24T04:31:33;7.57;;;4.43;;
28766;SDS011;15921;52.034;20.650;2023-08-24T04:33:59;8.20;;;4.57;;
28766;SDS011;15921;52.034;20.650;2023-08-24T04:36:25;5.28;;;3.92;;
28766;SDS011;15921;52.034;20.650;2023-08-24T04:38:50;6.93;;;3.30;;
28766;SDS011;15921;52.034;20.650;2023-08-24T04:41:16;5.72;;;3.80;;
28766;SDS011;15921;52.034;20.650;2023-08-24T04:43:42;7.20;;;3.90;;
28766;SDS011;15921;52.034;20.650;2023-08-24T04:46:07;6.03;;;4.07;;
28766;SDS011;15921;52.034;20.650;2023-08-24T04:48:33;7.38;;;3.90;;
28766;SDS011;15921;52.034;20.650;2023-08-24T04:51:00;9.43;;;4.53;;
28766;SDS011;15921;52.034;20.650;2023-08-24T04:53:27;8.65;;;4.55;;
28766;SDS011;15921;52.034;20.650;2023-08-24T04:55:52;7.03;;;4.32;;
28766;SDS011;15921;52.034;20.650;2023-08-24T04:58:18;5.82;;;4.30;;
28766;SDS011;15921;52.034;20.650;2023-08-24T05:00:44;7.13;;;3.75;;
28766;SDS011;15921;52.034;20.650;2023-08-24T05:03:10;9.07;;;4.10;;
28766;SDS011;15921;52.034;20.650;2023-08-24T05:05:36;6.10;;;3.70;;
28766;SDS011;15921;52.034;20.650;2023-08-24T05:08:03;10.18;;;4.30;;
28766;SDS011;15921;52.034;20.650;2023-08-24T05:10:31;5.05;;;3.72;;
28766;SDS011;15921;52.034;20.650;2023-08-24T05:12:58;7.55;;;4.20;;
28766;SDS011;15921;52.034;20.650;2023-08-24T05:15:24;7.80;;;3.95;;
28766;SDS011;15921;52.034;20.650;2023-08-24T05:17:50;6.90;;;3.83;;
28766;SDS011;15921;52.034;20.650;2023-08-24T05:20:19;6.30;;;3.53;;
28766;SDS011;15921;52.034;20.650;2023-08-24T05:22:45;6.85;;;4.07;;
28766;SDS011;15921;52.034;20.650;2023-08-24T05:25:12;7.22;;;3.83;;
28766;SDS011;15921;52.034;20.650;2023-08-24T05:27:38;4.95;;;3.75;;
28766;SDS011;15921;52.034;20.650;2023-08-24T05:30:04;8.40;;;4.07;;
28766;SDS011;15921;52.034;20.650;2023-08-24T05:32:32;7.35;;;4.47;;
28766;SDS011;15921;52.034;20.650;2023-08-24T05:34:59;8.80;;;4.63;;
28766;SDS011;15921;52.034;20.650;2023-08-24T05:37:24;15.65;;;4.60;;
28766;SDS011;15921;52.034;20.650;2023-08-24T05:39:50;10.93;;;4.18;;
28766;SDS011;15921;52.034;20.650;2023-08-24T05:42:15;7.05;;;4.07;;
28766;SDS011;15921;52.034;20.650;2023-08-24T05:44:41;9.88;;;3.50;;
28766;SDS011;15921;52.034;20.650;2023-08-24T05:47:07;12.45;;;4.22;;
28766;SDS011;15921;52.034;20.650;2023-08-24T05:49:32;9.77;;;4.28;;
28766;SDS011;15921;52.034;20.650;2023-08-24T05:51:58;6.22;;;3.88;;
28766;SDS011;15921;52.034;20.650;2023-08-24T05:54:24;9.75;;;4.65;;
28766;SDS011;15921;52.034;20.650;2023-08-24T05:56:49;6.00;;;4.00;;
28766;SDS011;15921;52.034;20.650;2023-08-24T05:59:15;5.63;;;3.83;;
28766;SDS011;15921;52.034;20.650;2023-08-24T06:01:41;9.88;;;3.33;;
28766;SDS011;15921;52.034;20.650;2023-08-24T06:04:07;11.15;;;4.10;;
28766;SDS011;15921;52.034;20.650;2023-08-24T06:06:34;6.25;;;3.45;;
28766;SDS011;15921;52.034;20.650;2023-08-24T06:09:00;8.02;;;3.50;;
28766;SDS011;15921;52.034;20.650;2023-08-24T06:11:29;10.35;;;4.07;;
28766;SDS011;15921;52.034;20.650;2023-08-24T06:13:54;8.35;;;3.72;;
28766;SDS011;15921;52.034;20.650;2023-08-24T06:16:20;7.18;;;3.60;;
28766;SDS011;15921;52.034;20.650;2023-08-24T06:18:46;7.82;;;3.70;;
28766;SDS011;15921;52.034;20.650;2023-08-24T06:21:12;6.85;;;3.38;;
28766;SDS011;15921;52.034;20.650;2023-08-24T06:23:38;6.18;;;3.20;;
28766;SDS011;15921;52.034;20.650;2023-08-24T06:26:04;6.97;;;3.60;;
28766;SDS011;15921;52.034;20.650;2023-08-24T06:28:30;6.72;;;3.03;;
28766;SDS011;15921;52.034;20.650;2023-08-24T06:30:56;5.50;;;2.95;;
28766;SDS011;15921;52.034;20.650;2023-08-24T06:33:26;7.18;;;3.55;;
28766;SDS011;15921;52.034;20.650;2023-08-24T06:35:55;7.40;;;3.03;;
28766;SDS011;15921;52.034;20.650;2023-08-24T06:38:21;5.47;;;3.17;;
28766;SDS011;15921;52.034;20.650;2023-08-24T06:40:47;6.75;;;3.10;;
28766;SDS011;15921;52.034;20.650;2023-08-24T06:43:13;10.75;;;3.20;;
28766;SDS011;15921;52.034;20.650;2023-08-24T06:45:39;5.93;;;2.72;;
28766;SDS011;15921;52.034;20.650;2023-08-24T06:48:05;7.18;;;3.53;;
28766;SDS011;15921;52.034;20.650;2023-08-24T06:50:32;8.05;;;3.08;;
28766;SDS011;15921;52.034;20.650;2023-08-24T06:52:58;5.97;;;3.45;;
28766;SDS011;15921;52.034;20.650;2023-08-24T06:55:24;5.50;;;2.70;;
28766;SDS011;15921;52.034;20.650;2023-08-24T06:57:51;7.78;;;3.05;;
28766;SDS011;15921;52.034;20.650;2023-08-24T07:00:17;5.78;;;3.00;;
28766;SDS011;15921;52.034;20.650;2023-08-24T07:02:45;4.88;;;2.85;;
28766;SDS011;15921;52.034;20.650;2023-08-24T07:05:12;4.57;;;2.45;;
28766;SDS011;15921;52.034;20.650;2023-08-24T07:07:38;5.43;;;2.80;;
28766;SDS011;15921;52.034;20.650;2023-08-24T07:10:04;4.57;;;2.70;;
28766;SDS011;15921;52.034;20.650;2023-08-24T07:12:31;8.15;;;3.30;;
28766;SDS011;15921;52.034;20.650;2023-08-24T07:14:57;4.25;;;2.80;;
28766;SDS011;15921;52.034;20.650;2023-08-24T07:17:23;7.50;;;3.63;;
28766;SDS011;15921;52.034;20.650;2023-08-24T07:19:49;5.57;;;2.95;;
28766;SDS011;15921;52.034;20.650;2023-08-24T07:22:15;4.30;;;2.63;;
28766;SDS011;15921;52.034;20.650;2023-08-24T07:24:41;4.60;;;2.70;;
28766;SDS011;15921;52.034;20.650;2023-08-24T07:27:06;4.38;;;2.60;;
28766;SDS011;15921;52.034;20.650;2023-08-24T07:29:34;6.75;;;2.35;;
28766;SDS011;15921;52.034;20.650;2023-08-24T07:31:59;4.15;;;2.45;;
28766;SDS011;15921;52.034;20.650;2023-08-24T07:34:25;5.70;;;2.63;;
28766;SDS011;15921;52.034;20.650;2023-08-24T07:36:51;5.75;;;2.33;;
28766;SDS011;15921;52.034;20.650;2023-08-24T07:39:18;4.13;;;2.53;;
28766;SDS011;15921;52.034;20.650;2023-08-24T07:41:44;10.10;;;2.67;;
28766;SDS011;15921;52.034;20.650;2023-08-24T07:44:10;5.15;;;2.47;;
28766;SDS011;15921;52.034;20.650;2023-08-24T07:46:36;4.60;;;2.28;;
28766;SDS011;15921;52.034;20.650;2023-08-24T07:49:03;5.32;;;2.00;;
28766;SDS011;15921;52.034;20.650;2023-08-24T07:51:29;4.25;;;2.38;;
28766;SDS011;15921;52.034;20.650;2023-08-24T07:53:54;5.68;;;2.35;;
28766;SDS011;15921;52.034;20.650;2023-08-24T07:56:20;4.30;;;2.50;;
28766;SDS011;15921;52.034;20.650;2023-08-24T07:58:47;4.88;;;2.40;;
28766;SDS011;15921;52.034;20.650;2023-08-24T08:01:14;5.85;;;2.75;;
28766;SDS011;15921;52.034;20.650;2023-08-24T08:03:40;4.28;;;2.30;;
28766;SDS011;15921;52.034;20.650;2023-08-24T08:06:06;3.33;;;2.30;;
28766;SDS011;15921;52.034;20.650;2023-08-24T08:08:31;10.10;;;3.08;;
28766;SDS011;15921;52.034;20.650;2023-08-24T08:10:58;5.45;;;2.65;;
28766;SDS011;15921;52.034;20.650;2023-08-24T08:13:28;4.93;;;2.67;;
28766;SDS011;15921;52.034;20.650;2023-08-24T08:16:00;4.63;;;2.30;;
28766;SDS011;15921;52.034;20.650;2023-08-24T08:18:35;3.95;;;2.10;;
28766;SDS011;15921;52.034;20.650;2023-08-24T08:21:03;4.70;;;2.55;;
28766;SDS011;15921;52.034;20.650;2023-08-24T08:23:43;4.32;;;2.35;;
28766;SDS011;15921;52.034;20.650;2023-08-24T08:26:10;4.00;;;2.40;;
28766;SDS011;15921;52.034;20.650;2023-08-24T08:28:36;5.43;;;2.53;;
28766;SDS011;15921;52.034;20.650;2023-08-24T08:31:02;3.55;;;2.50;;
28766;SDS011;15921;52.034;20.650;2023-08-24T08:33:28;5.82;;;2.40;;
28766;SDS011;15921;52.034;20.650;2023-08-24T08:35:55;5.28;;;2.60;;
28766;SDS011;15921;52.034;20.650;2023-08-24T08:38:21;6.55;;;2.58;;
28766;SDS011;15921;52.034;20.650;2023-08-24T08:40:50;6.20;;;2.60;;
28766;SDS011;15921;52.034;20.650;2023-08-24T08:43:21;8.18;;;2.65;;
28766;SDS011;15921;52.034;20.650;2023-08-24T08:45:49;4.03;;;2.45;;
28766;SDS011;15921;52.034;20.650;2023-08-24T08:48:16;3.85;;;2.42;;
28766;SDS011;15921;52.034;20.650;2023-08-24T08:50:42;7.85;;;2.40;;
28766;SDS011;15921;52.034;20.650;2023-08-24T08:53:08;8.32;;;2.67;;
28766;SDS011;15921;52.034;20.650;2023-08-24T08:55:34;5.32;;;2.33;;
28766;SDS011;15921;52.034;20.650;2023-08-24T08:58:00;7.75;;;2.40;;
28766;SDS011;15921;52.034;20.650;2023-08-24T09:00:27;7.57;;;2.60;;
28766;SDS011;15921;52.034;20.650;2023-08-24T09:02:53;3.47;;;2.45;;
28766;SDS011;15921;52.034;20.650;2023-08-24T09:05:21;7.15;;;2.85;;
28766;SDS011;15921;52.034;20.650;2023-08-24T09:07:51;5.53;;;2.38;;
28766;SDS011;15921;52.034;20.650;2023-08-24T09:10:18;4.90;;;2.50;;
28766;SDS011;15921;52.034;20.650;2023-08-24T09:12:44;5.78;;;3.00;;
28766;SDS011;15921;52.034;20.650;2023-08-24T09:15:09;7.32;;;3.03;;
28766;SDS011;15921;52.034;20.650;2023-08-24T09:17:35;6.43;;;2.83;;
28766;SDS011;15921;52.034;20.650;2023-08-24T09:20:06;6.15;;;2.83;;
28766;SDS011;15921;52.034;20.650;2023-08-24T09:22:34;6.38;;;2.58;;
28766;SDS011;15921;52.034;20.650;2023-08-24T09:25:01;11.45;;;2.88;;
28766;SDS011;15921;52.034;20.650;2023-08-24T09:27:29;8.05;;;2.72;;
28766;SDS011;15921;52.034;20.650;2023-08-24T09:29:54;7.32;;;2.67;;
28766;SDS011;15921;52.034;20.650;2023-08-24T09:32:23;5.63;;;2.60;;
28766;SDS011;15921;52.034;20.650;2023-08-24T09:34:52;5.22;;;2.22;;
28766;SDS011;15921;52.034;20.650;2023-08-24T09:37:18;5.53;;;2.58;;
28766;SDS011;15921;52.034;20.650;2023-08-24T09:39:45;7.20;;;2.28;;
28766;SDS011;15921;52.034;20.650;2023-08-24T09:42:12;3.70;;;2.30;;
28766;SDS011;15921;52.034;20.650;2023-08-24T09:44:42;6.72;;;2.40;;
28766;SDS011;15921;52.034;20.650;2023-08-24T09:47:09;4.85;;;1.80;;
28766;SDS011;15921;52.034;20.650;2023-08-24T09:49:36;6.25;;;2.40;;
28766;SDS011;15921;52.034;20.650;2023-08-24T09:52:02;7.22;;;2.13;;
28766;SDS011;15921;52.034;20.650;2023-08-24T09:54:30;4.13;;;2.03;;
28766;SDS011;15921;52.034;20.650;2023-08-24T09:57:00;4.95;;;2.20;;
28766;SDS011;15921;52.034;20.650;2023-08-24T09:59:28;3.67;;;2.08;;
28766;SDS011;15921;52.034;20.650;2023-08-24T10:01:56;4.05;;;2.10;;
28766;SDS011;15921;52.034;20.650;2023-08-24T10:04:28;5.47;;;2.47;;
28766;SDS011;15921;52.034;20.650;2023-08-24T10:07:10;4.10;;;2.43;;
28766;SDS011;15921;52.034;20.650;2023-08-24T10:10:01;4.18;;;1.85;;
28766;SDS011;15921;52.034;20.650;2023-08-24T10:12:28;3.72;;;1.88;;
28766;SDS011;15921;52.034;20.650;2023-08-24T10:17:26;5.22;;;2.42;;
28766;SDS011;15921;52.034;20.650;2023-08-24T10:19:52;4.63;;;2.40;;
28766;SDS011;15921;52.034;20.650;2023-08-24T10:22:20;4.60;;;2.30;;
28766;SDS011;15921;52.034;20.650;2023-08-24T10:24:49;5.13;;;2.17;;
28766;SDS011;15921;52.034;20.650;2023-08-24T10:27:16;7.90;;;2.30;;
28766;SDS011;15921;52.034;20.650;2023-08-24T10:29:42;4.57;;;2.28;;
28766;SDS011;15921;52.034;20.650;2023-08-24T10:32:08;3.85;;;2.22;;
28766;SDS011;15921;52.034;20.650;2023-08-24T10:34:34;5.10;;;2.53;;
28766;SDS011;15921;52.034;20.650;2023-08-24T10:37:10;4.45;;;2.50;;
28766;SDS011;15921;52.034;20.650;2023-08-24T10:39:37;4.43;;;2.30;;
28766;SDS011;15921;52.034;20.650;2023-08-24T10:42:12;3.47;;;1.88;;
28766;SDS011;15921;52.034;20.650;2023-08-24T10:44:40;6.60;;;2.50;;
28766;SDS011;15921;52.034;20.650;2023-08-24T10:47:20;5.63;;;2.22;;
28766;SDS011;15921;52.034;20.650;2023-08-24T10:50:08;4.07;;;2.58;;
28766;SDS011;15921;52.034;20.650;2023-08-24T10:52:35;6.88;;;2.47;;
28766;SDS011;15921;52.034;20.650;2023-08-24T10:55:04;5.70;;;2.60;;
28766;SDS011;15921;52.034;20.650;2023-08-24T10:57:52;5.75;;;2.33;;
28766;SDS011;15921;52.034;20.650;2023-08-24T11:00:27;4.95;;;2.50;;
28766;SDS011;15921;52.034;20.650;2023-08-24T11:02:54;5.57;;;2.10;;
28766;SDS011;15921;52.034;20.650;2023-08-24T11:05:22;5.80;;;2.35;;
28766;SDS011;15921;52.034;20.650;2023-08-24T11:07:53;6.35;;;2.40;;
28766;SDS011;15921;52.034;20.650;2023-08-24T11:15:40;4.63;;;2.20;;
28766;SDS011;15921;52.034;20.650;2023-08-24T11:20:51;3.25;;;2.10;;
28766;SDS011;15921;52.034;20.650;2023-08-24T11:23:20;6.00;;;2.30;;
28766;SDS011;15921;52.034;20.650;2023-08-24T11:25:47;4.75;;;2.30;;
28766;SDS011;15921;52.034;20.650;2023-08-24T11:28:18;5.80;;;2.17;;
28766;SDS011;15921;52.034;20.650;2023-08-24T11:30:45;3.00;;;2.30;;
28766;SDS011;15921;52.034;20.650;2023-08-24T11:33:11;3.67;;;2.10;;
28766;SDS011;15921;52.034;20.650;2023-08-24T11:35:43;7.28;;;2.50;;
28766;SDS011;15921;52.034;20.650;2023-08-24T11:38:10;12.02;;;2.58;;
28766;SDS011;15921;52.034;20.650;2023-08-24T11:40:36;6.28;;;2.20;;
28766;SDS011;15921;52.034;20.650;2023-08-24T11:43:03;8.05;;;2.50;;
28766;SDS011;15921;52.034;20.650;2023-08-24T11:45:30;6.97;;;2.42;;
28766;SDS011;15921;52.034;20.650;2023-08-24T11:48:01;7.00;;;2.53;;
28766;SDS011;15921;52.034;20.650;2023-08-24T11:50:29;3.30;;;1.98;;
28766;SDS011;15921;52.034;20.650;2023-08-24T11:52:55;5.68;;;2.33;;
28766;SDS011;15921;52.034;20.650;2023-08-24T11:55:24;8.45;;;3.35;;
28766;SDS011;15921;52.034;20.650;2023-08-24T11:57:50;2.33;;;1.80;;
28766;SDS011;15921;52.034;20.650;2023-08-24T12:00:19;2.47;;;2.10;;
28766;SDS011;15921;52.034;20.650;2023-08-24T12:02:46;7.32;;;2.50;;
28766;SDS011;15921;52.034;20.650;2023-08-24T12:05:20;4.00;;;2.55;;
28766;SDS011;15921;52.034;20.650;2023-08-24T12:07:51;3.42;;;2.20;;
28766;SDS011;15921;52.034;20.650;2023-08-24T12:10:18;4.90;;;2.38;;
28766;SDS011;15921;52.034;20.650;2023-08-24T12:12:44;3.58;;;2.40;;
28766;SDS011;15921;52.034;20.650;2023-08-24T12:15:16;9.32;;;2.40;;
28766;SDS011;15921;52.034;20.650;2023-08-24T12:17:44;8.07;;;2.00;;
28766;SDS011;15921;52.034;20.650;2023-08-24T12:20:18;4.68;;;1.98;;
28766;SDS011;15921;52.034;20.650;2023-08-24T12:22:54;5.07;;;2.13;;
28766;SDS011;15921;52.034;20.650;2023-08-24T12:25:23;4.05;;;2.25;;
28766;SDS011;15921;52.034;20.650;2023-08-24T12:27:53;3.22;;;1.70;;
28766;SDS011;15921;52.034;20.650;2023-08-24T12:30:43;6.78;;;2.17;;
28766;SDS011;15921;52.034;20.650;2023-08-24T12:33:26;7.90;;;2.15;;
28766;SDS011;15921;52.034;20.650;2023-08-24T12:35:56;6.45;;;2.00;;
28766;SDS011;15921;52.034;20.650;2023-08-24T12:38:24;3.13;;;1.77;;
28766;SDS011;15921;52.034;20.650;2023-08-24T12:40:51;3.42;;;1.90;;
28766;SDS011;15921;52.034;20.650;2023-08-24T12:43:17;5.63;;;2.00;;
28766;SDS011;15921;52.034;20.650;2023-08-24T12:45:43;3.67;;;1.80;;
28766;SDS011;15921;52.034;20.650;2023-08-24T12:48:09;5.40;;;1.90;;
28766;SDS011;15921;52.034;20.650;2023-08-24T12:50:36;3.15;;;1.90;;
28766;SDS011;15921;52.034;20.650;2023-08-24T12:53:03;4.70;;;1.60;;
28766;SDS011;15921;52.034;20.650;2023-08-24T12:55:31;4.50;;;1.90;;
28766;SDS011;15921;52.034;20.650;2023-08-24T12:57:58;5.43;;;2.47;;
28766;SDS011;15921;52.034;20.650;2023-08-24T13:00:24;3.70;;;2.15;;
28766;SDS011;15921;52.034;20.650;2023-08-24T13:02:50;6.07;;;2.38;;
28766;SDS011;15921;52.034;20.650;2023-08-24T13:05:16;5.93;;;2.00;;
28766;SDS011;15921;52.034;20.650;2023-08-24T13:07:42;4.72;;;1.95;;
28766;SDS011;15921;52.034;20.650;2023-08-24T13:10:08;4.70;;;2.22;;
28766;SDS011;15921;52.034;20.650;2023-08-24T13:12:34;4.63;;;2.00;;
28766;SDS011;15921;52.034;20.650;2023-08-24T13:15:01;7.75;;;2.15;;
28766;SDS011;15921;52.034;20.650;2023-08-24T13:17:30;4.13;;;1.80;;
28766;SDS011;15921;52.034;20.650;2023-08-24T13:19:56;4.10;;;2.20;;
28766;SDS011;15921;52.034;20.650;2023-08-24T13:22:22;4.05;;;2.00;;
28766;SDS011;15921;52.034;20.650;2023-08-24T13:24:48;5.03;;;2.30;;
28766;SDS011;15921;52.034;20.650;2023-08-24T13:27:14;2.97;;;1.95;;
28766;SDS011;15921;52.034;20.650;2023-08-24T13:29:40;4.10;;;2.17;;
28766;SDS011;15921;52.034;20.650;2023-08-24T13:32:06;4.07;;;1.88;;
28766;SDS011;15921;52.034;20.650;2023-08-24T13:34:32;2.83;;;1.80;;
28766;SDS011;15921;52.034;20.650;2023-08-24T13:36:58;5.95;;;2.03;;
28766;SDS011;15921;52.034;20.650;2023-08-24T13:39:26;3.55;;;1.75;;
28766;SDS011;15921;52.034;20.650;2023-08-24T13:41:57;7.30;;;1.90;;
28766;SDS011;15921;52.034;20.650;2023-08-24T13:44:23;5.70;;;1.80;;
28766;SDS011;15921;52.034;20.650;2023-08-24T13:46:49;5.50;;;1.90;;
28766;SDS011;15921;52.034;20.650;2023-08-24T13:49:17;3.83;;;2.03;;
28766;SDS011;15921;52.034;20.650;2023-08-24T13:51:43;4.60;;;2.38;;
28766;SDS011;15921;52.034;20.650;2023-08-24T13:54:13;7.25;;;2.30;;
28766;SDS011;15921;52.034;20.650;2023-08-24T13:56:45;4.53;;;2.28;;
28766;SDS011;15921;52.034;20.650;2023-08-24T13:59:12;3.95;;;1.70;;
28766;SDS011;15921;52.034;20.650;2023-08-24T14:01:39;6.50;;;2.20;;
28766;SDS011;15921;52.034;20.650;2023-08-24T14:04:05;4.07;;;2.45;;
28766;SDS011;15921;52.034;20.650;2023-08-24T14:06:31;5.07;;;2.38;;
28766;SDS011;15921;52.034;20.650;2023-08-24T14:09:00;6.95;;;2.38;;
28766;SDS011;15921;52.034;20.650;2023-08-24T14:11:26;6.20;;;2.50;;
28766;SDS011;15921;52.034;20.650;2023-08-24T14:13:52;5.30;;;1.98;;
28766;SDS011;15921;52.034;20.650;2023-08-24T14:16:18;4.07;;;2.00;;
28766;SDS011;15921;52.034;20.650;2023-08-24T14:18:47;3.45;;;2.17;;
28766;SDS011;15921;52.034;20.650;2023-08-24T14:21:13;5.72;;;2.25;;
28766;SDS011;15921;52.034;20.650;2023-08-24T14:23:40;5.22;;;2.60;;
28766;SDS011;15921;52.034;20.650;2023-08-24T14:26:06;5.82;;;2.35;;
28766;SDS011;15921;52.034;20.650;2023-08-24T14:31:18;5.85;;;2.35;;
28766;SDS011;15921;52.034;20.650;2023-08-24T14:33:45;2.95;;;1.88;;
28766;SDS011;15921;52.034;20.650;2023-08-24T14:36:10;4.18;;;2.00;;
28766;SDS011;15921;52.034;20.650;2023-08-24T14:38:40;3.58;;;2.28;;
28766;SDS011;15921;52.034;20.650;2023-08-24T14:41:09;5.28;;;2.45;;
28766;SDS011;15921;52.034;20.650;2023-08-24T14:43:35;3.95;;;2.22;;
28766;SDS011;15921;52.034;20.650;2023-08-24T14:46:01;5.05;;;1.95;;
28766;SDS011;15921;52.034;20.650;2023-08-24T14:48:28;11.85;;;2.58;;
28766;SDS011;15921;52.034;20.650;2023-08-24T14:50:54;2.65;;;1.90;;
28766;SDS011;15921;52.034;20.650;2023-08-24T14:53:20;4.63;;;2.40;;
28766;SDS011;15921;52.034;20.650;2023-08-24T14:55:45;3.83;;;2.58;;